createdAt,value
2019-02-27T00:01:00.614Z,20.30
2019-02-27T00:03:29.633Z,22.42
2019-02-27T00:05:58.207Z,21.57
2019-02-27T00:08:27.034Z,21.70
2019-02-27T00:10:56.150Z,20.27
2019-02-27T00:13:25.392Z,22.40
2019-02-27T00:15:54.040Z,20.55
2019-02-27T00:18:23.950Z,22.05
2019-02-27T00:20:52.690Z,22.43
2019-02-27T00:23:23.840Z,23.70
2019-02-27T00:25:51.326Z,22.27
2019-02-27T00:28:23.118Z,20.32
2019-02-27T00:30:50.034Z,21.70
2019-02-27T00:33:18.515Z,20.92
2019-02-27T00:35:46.958Z,22.07
2019-02-27T00:38:15.413Z,20.88
2019-02-27T00:40:43.859Z,21.68
2019-02-27T00:43:12.329Z,21.75
2019-02-27T00:45:40.792Z,19.65
2019-02-27T00:48:09.261Z,20.62
2019-02-27T00:50:39.092Z,20.70
2019-02-27T00:53:08.118Z,20.57
2019-02-27T00:55:39.399Z,18.62
2019-02-27T00:58:06.810Z,21.27
2019-02-27T01:00:38.896Z,18.73
2019-02-27T01:03:05.502Z,20.00
2019-02-27T01:05:34.044Z,21.65
2019-02-27T01:08:02.487Z,19.70
2019-02-27T01:10:31.024Z,20.85
2019-02-27T01:12:59.462Z,20.23
2019-02-27T01:15:27.948Z,19.60
2019-02-27T01:17:57.441Z,18.37
2019-02-27T01:20:26.551Z,21.53
2019-02-27T01:22:55.003Z,19.65
2019-02-27T01:25:23.626Z,17.95
2019-02-27T01:27:52.374Z,19.12
2019-02-27T01:30:23.842Z,20.45
2019-02-27T01:35:19.554Z,18.65
2019-02-27T01:37:48.009Z,18.98
2019-02-27T01:40:18.044Z,20.02
2019-02-27T01:42:46.635Z,19.00
2019-02-27T01:45:20.626Z,18.82
2019-02-27T01:47:46.826Z,18.95
2019-02-27T01:50:29.247Z,19.45
2019-02-27T01:52:57.710Z,18.85
2019-02-27T01:55:26.163Z,20.32
2019-02-27T01:57:54.613Z,19.42
2019-02-27T02:00:23.883Z,17.60
2019-02-27T02:02:52.654Z,18.27
2019-02-27T02:05:21.103Z,19.52
2019-02-27T02:07:49.559Z,19.95
2019-02-27T02:10:18.502Z,18.73
2019-02-27T02:12:50.275Z,17.60
2019-02-27T02:15:27.107Z,18.37
2019-02-27T02:18:23.270Z,17.45
2019-02-27T02:21:32.072Z,16.93
2019-02-27T02:24:37.531Z,18.50
2019-02-27T02:27:39.131Z,18.07
2019-02-27T02:30:48.279Z,17.57
2019-02-27T02:33:19.855Z,18.40
2019-02-27T02:35:53.911Z,19.37
2019-02-27T02:38:58.498Z,18.95
2019-02-27T02:41:32.641Z,17.62
2019-02-27T02:44:07.052Z,18.37
2019-02-27T02:47:11.333Z,18.65
2019-02-27T02:50:17.744Z,19.20
2019-02-27T02:53:09.105Z,17.00
2019-02-27T02:56:01.418Z,17.73
2019-02-27T02:58:47.271Z,18.85
2019-02-27T03:01:24.495Z,19.02
2019-02-27T03:04:01.880Z,17.85
2019-02-27T03:06:52.895Z,18.77
2019-02-27T03:09:30.128Z,17.92
2019-02-27T03:12:18.056Z,18.17
2019-02-27T03:15:18.096Z,17.23
2019-02-27T03:17:55.315Z,18.07
2019-02-27T03:20:29.582Z,17.50
2019-02-27T03:23:21.314Z,18.52
2019-02-27T03:26:16.491Z,17.70
2019-02-27T03:31:59.961Z,16.35
2019-02-27T03:35:17.723Z,17.02
2019-02-27T03:38:00.966Z,17.20
2019-02-27T03:40:32.560Z,17.45
2019-02-27T03:43:36.939Z,17.48
2019-02-27T03:46:23.287Z,18.55
2019-02-27T03:49:23.176Z,19.48
2019-02-27T03:52:16.851Z,16.45
2019-02-27T03:54:48.733Z,17.57
2019-02-27T03:57:32.618Z,18.52
2019-02-27T04:00:24.333Z,17.80
2019-02-27T04:03:18.243Z,16.27
2019-02-27T04:05:57.472Z,15.88
2019-02-27T04:08:56.510Z,17.85
2019-02-27T04:11:25.483Z,19.98
2019-02-27T04:13:54.002Z,19.52
2019-02-27T04:16:28.963Z,17.23
2019-02-27T04:18:52.720Z,17.52
2019-02-27T04:21:25.014Z,18.00
2019-02-27T04:23:51.581Z,18.02
2019-02-27T04:26:20.127Z,17.65
2019-02-27T04:28:48.575Z,20.43
2019-02-27T04:31:17.051Z,20.40
2019-02-27T04:33:45.506Z,18.60
2019-02-27T04:36:13.969Z,18.65
2019-02-27T04:38:42.439Z,17.90
2019-02-27T04:41:10.915Z,17.55
2019-02-27T04:43:39.360Z,18.45
2019-02-27T04:46:07.799Z,17.35
2019-02-27T04:48:36.267Z,16.42
2019-02-27T04:51:04.710Z,18.90
2019-02-27T04:53:33.143Z,17.67
2019-02-27T04:56:01.617Z,17.48
2019-02-27T04:58:31.388Z,18.45
2019-02-27T05:00:59.991Z,18.00
2019-02-27T05:03:28.622Z,19.80
2019-02-27T05:05:57.379Z,19.23
2019-02-27T05:08:27.251Z,19.30
2019-02-27T05:10:56.035Z,18.80
2019-02-27T05:13:24.497Z,18.60
2019-02-27T05:15:52.959Z,19.52
2019-02-27T05:18:21.432Z,17.82
2019-02-27T05:20:49.875Z,17.73
2019-02-27T05:23:18.336Z,18.50
2019-02-27T05:25:46.782Z,18.48
2019-02-27T05:28:15.225Z,17.98
2019-02-27T05:30:45.235Z,19.52
2019-02-27T05:33:13.843Z,20.23
2019-02-27T05:35:42.319Z,18.82
2019-02-27T05:38:10.762Z,19.60
2019-02-27T05:40:39.223Z,19.30
2019-02-27T05:43:07.659Z,19.37
2019-02-27T05:45:36.108Z,18.07
2019-02-27T05:48:04.592Z,20.02
2019-02-27T05:50:34.217Z,18.75
2019-02-27T05:53:03.351Z,18.50
2019-02-27T05:55:31.806Z,18.92
2019-02-27T05:58:00.255Z,18.57
2019-02-27T06:00:29.309Z,18.55
2019-02-27T06:02:57.810Z,16.65
2019-02-27T06:05:26.256Z,17.77
2019-02-27T06:07:54.723Z,18.02
2019-02-27T06:10:23.652Z,19.67
2019-02-27T06:12:52.209Z,18.55
2019-02-27T06:15:20.655Z,18.75
2019-02-27T06:17:49.868Z,17.55
2019-02-27T06:20:18.435Z,18.95
2019-02-27T06:22:46.903Z,19.95
2019-02-27T06:25:21.957Z,19.48
2019-02-27T06:27:47.543Z,20.48
2019-02-27T06:30:18.127Z,18.92
2019-02-27T06:32:46.586Z,18.27
2019-02-27T06:35:16.559Z,19.52
2019-02-27T06:37:45.092Z,20.92
2019-02-27T06:40:15.645Z,21.23
2019-02-27T06:42:44.099Z,20.52
2019-02-27T06:45:14.799Z,20.60
2019-02-27T06:47:43.254Z,21.57
2019-02-27T06:50:14.771Z,18.87
2019-02-27T06:52:43.381Z,17.25
2019-02-27T06:55:13.573Z,19.07
2019-02-27T06:57:42.058Z,19.57
2019-02-27T07:00:13.749Z,18.87
2019-02-27T07:02:42.229Z,20.57
2019-02-27T07:05:13.557Z,20.45
2019-02-27T07:07:41.667Z,19.25
2019-02-27T07:10:13.163Z,20.48
2019-02-27T07:12:41.635Z,22.52
2019-02-27T07:15:21.019Z,21.68
2019-02-27T07:17:49.667Z,22.07
2019-02-27T07:20:18.238Z,22.87
2019-02-27T07:22:46.821Z,21.07
2019-02-27T07:25:17.095Z,21.35
2019-02-27T07:27:45.609Z,23.90
2019-02-27T07:30:42.631Z,22.52
2019-02-27T07:33:23.363Z,22.40
2019-02-27T07:35:51.816Z,20.77
2019-02-27T07:38:21.739Z,20.92
2019-02-27T07:40:50.460Z,21.27
2019-02-27T07:43:18.901Z,23.18
2019-02-27T07:45:47.350Z,24.47
2019-02-27T07:48:15.803Z,22.82
2019-02-27T07:50:48.137Z,23.20
2019-02-27T07:53:17.424Z,21.83
2019-02-27T07:55:44.659Z,21.93
2019-02-27T07:58:13.099Z,20.50
2019-02-27T08:00:42.860Z,21.90
2019-02-27T08:03:13.054Z,22.20
2019-02-27T08:05:41.812Z,20.23
2019-02-27T08:08:10.280Z,20.23
2019-02-27T08:10:38.756Z,20.70
2019-02-27T08:13:07.282Z,20.45
2019-02-27T08:15:35.727Z,20.08
2019-02-27T08:18:04.224Z,19.62
2019-02-27T08:20:32.795Z,19.48
2019-02-27T08:23:01.248Z,18.25
2019-02-27T08:25:29.736Z,17.87
2019-02-27T08:27:58.174Z,17.52
2019-02-27T08:30:29.025Z,17.67
2019-02-27T08:32:57.475Z,17.90
2019-02-27T08:35:25.928Z,17.52
2019-02-27T08:38:02.125Z,17.87
2019-02-27T08:40:25.311Z,16.73
2019-02-27T08:42:53.878Z,16.37
2019-02-27T08:45:26.715Z,16.37
2019-02-27T08:47:52.511Z,15.50
2019-02-27T08:50:23.658Z,16.70
2019-02-27T08:52:52.112Z,17.15
2019-02-27T08:55:22.512Z,15.72
2019-02-27T08:57:56.052Z,16.52
2019-02-27T09:00:25.769Z,16.27
2019-02-27T09:02:55.730Z,16.67
2019-02-27T09:05:24.737Z,16.13
2019-02-27T09:07:53.251Z,15.98
2019-02-27T09:10:23.241Z,16.45
2019-02-27T09:12:53.125Z,15.88
2019-02-27T09:15:21.742Z,15.28
2019-02-27T09:17:50.213Z,16.12
2019-02-27T09:20:20.669Z,16.20
2019-02-27T09:22:49.610Z,16.55
2019-02-27T09:25:18.217Z,16.82
2019-02-27T09:27:46.718Z,16.20
2019-02-27T09:30:23.129Z,16.75
2019-02-27T09:32:51.597Z,18.12
2019-02-27T09:35:20.089Z,17.30
2019-02-27T09:37:51.112Z,16.80
2019-02-27T09:40:21.820Z,16.73
2019-02-27T09:42:52.874Z,17.12
2019-02-27T09:45:29.771Z,16.43
2019-02-27T09:47:59.892Z,17.75
2019-02-27T09:50:31.063Z,17.90
2019-02-27T09:53:01.015Z,17.85
2019-02-27T09:55:29.742Z,19.98
2019-02-27T09:57:58.188Z,17.77
2019-02-27T10:00:29.493Z,18.07
2019-02-27T10:02:58.311Z,17.27
2019-02-27T10:05:27.070Z,17.67
2019-02-27T10:07:57.400Z,16.97
2019-02-27T10:10:25.725Z,17.50
2019-02-27T10:12:54.175Z,18.70
2019-02-27T10:15:25.137Z,16.48
2019-02-27T10:17:52.820Z,17.70
2019-02-27T10:20:21.339Z,16.70
2019-02-27T10:22:49.851Z,16.97
2019-02-27T10:25:18.297Z,18.35
2019-02-27T10:27:47.390Z,17.10
2019-02-27T10:30:17.001Z,17.82
2019-02-27T10:32:45.459Z,16.85
2019-02-27T10:35:15.943Z,16.90
2019-02-27T10:37:50.410Z,15.60
2019-02-27T10:40:23.129Z,15.72
2019-02-27T10:42:51.617Z,17.30
2019-02-27T10:45:20.162Z,16.37
2019-02-27T10:47:48.595Z,15.55
2019-02-27T10:50:17.129Z,15.78
2019-02-27T10:52:45.582Z,15.85
2019-02-27T10:55:16.838Z,15.60
2019-02-27T10:57:45.304Z,15.40
2019-02-27T11:00:24.882Z,15.93
2019-02-27T11:02:52.689Z,15.40
2019-02-27T11:05:21.252Z,16.27
2019-02-27T11:07:50.183Z,15.23
2019-02-27T11:10:21.759Z,17.03
2019-02-27T11:12:50.501Z,15.95
2019-02-27T11:15:20.354Z,15.83
2019-02-27T11:17:48.879Z,16.40
2019-02-27T11:20:21.082Z,16.70
2019-02-27T11:22:47.891Z,16.52
2019-02-27T11:25:25.288Z,16.85
2019-02-27T11:27:53.734Z,16.55
2019-02-27T11:30:36.871Z,16.55
2019-02-27T11:33:04.299Z,15.58
2019-02-27T11:35:32.759Z,16.62
2019-02-27T11:38:01.214Z,16.87
2019-02-27T11:40:30.046Z,16.93
2019-02-27T11:42:58.506Z,16.82
2019-02-27T11:45:27.034Z,17.55
2019-02-27T11:47:55.482Z,15.48
2019-02-27T11:50:23.947Z,17.20
2019-02-27T11:52:52.475Z,16.87
2019-02-27T11:55:24.438Z,16.80
2019-02-27T11:57:53.191Z,16.80
2019-02-27T12:00:33.812Z,15.93
2019-02-27T12:03:02.294Z,16.82
2019-02-27T12:05:34.060Z,16.37
2019-02-27T12:08:01.162Z,14.90
2019-02-27T12:10:32.636Z,16.02
2019-02-27T12:13:01.659Z,16.00
2019-02-27T12:15:30.567Z,15.35
2019-02-27T12:18:01.398Z,15.32
2019-02-27T12:20:30.478Z,16.37
2019-02-27T12:22:58.931Z,14.60
2019-02-27T12:25:29.979Z,14.20
2019-02-27T12:27:57.560Z,15.47
2019-02-27T12:30:27.942Z,14.63
2019-02-27T12:32:57.016Z,15.07
2019-02-27T12:35:28.345Z,14.35
2019-02-27T12:37:56.809Z,14.20
2019-02-27T12:40:25.421Z,12.93
2019-02-27T12:42:54.001Z,14.45
2019-02-27T12:45:25.722Z,14.75
2019-02-27T12:47:54.772Z,12.98
2019-02-27T12:50:26.817Z,13.13
2019-02-27T12:55:22.282Z,13.48
2019-02-27T12:57:52.398Z,13.48
2019-02-27T13:00:31.763Z,12.60
2019-02-27T13:03:00.211Z,13.83
2019-02-27T13:05:29.253Z,12.58
2019-02-27T13:07:57.882Z,12.73
2019-02-27T13:10:27.392Z,12.37
2019-02-27T13:12:55.910Z,11.28
2019-02-27T13:15:26.724Z,13.32
2019-02-27T13:17:57.420Z,11.80
2019-02-27T13:20:28.030Z,11.83
2019-02-27T13:25:24.874Z,11.75
2019-02-27T13:27:53.741Z,11.43
2019-02-27T13:30:26.078Z,12.33
2019-02-27T13:32:54.528Z,11.28
2019-02-27T13:35:24.018Z,10.90
2019-02-27T13:37:52.827Z,9.73
2019-02-27T13:40:26.920Z,11.65
2019-02-27T13:42:55.490Z,11.28
2019-02-27T13:45:29.178Z,10.68
2019-02-27T13:47:59.065Z,10.45
2019-02-27T13:50:27.937Z,10.53
2019-02-27T13:52:56.465Z,11.97
2019-02-27T13:55:24.933Z,11.00
2019-02-27T13:57:53.377Z,11.53
2019-02-27T14:00:30.219Z,10.72
2019-02-27T14:02:58.726Z,11.25
2019-02-27T14:05:29.207Z,11.27
2019-02-27T14:07:58.610Z,10.23
2019-02-27T14:10:34.354Z,10.87
2019-02-27T14:13:02.801Z,10.68
2019-02-27T14:15:31.826Z,11.90
2019-02-27T14:18:00.953Z,10.55
2019-02-27T14:20:29.537Z,11.00
2019-02-27T14:22:58.235Z,12.55
2019-02-27T14:25:33.194Z,10.38
2019-02-27T14:28:01.802Z,12.00
2019-02-27T14:30:36.618Z,11.73
2019-02-27T14:33:05.250Z,11.35
2019-02-27T14:35:36.209Z,12.63
2019-02-27T14:38:03.965Z,11.57
2019-02-27T14:40:37.665Z,12.10
2019-02-27T14:43:02.798Z,12.50
2019-02-27T14:45:31.263Z,12.68
2019-02-27T14:47:59.780Z,12.53
2019-02-27T14:50:33.595Z,13.57
2019-02-27T14:52:59.410Z,11.15
2019-02-27T14:55:27.931Z,11.40
2019-02-27T14:57:56.388Z,12.43
2019-02-27T15:00:29.698Z,12.53
2019-02-27T15:02:58.295Z,11.15
2019-02-27T15:05:27.118Z,10.13
2019-02-27T15:07:55.587Z,10.28
2019-02-27T15:10:24.682Z,10.72
2019-02-27T15:12:55.063Z,11.03
2019-02-27T15:15:28.227Z,11.17
2019-02-27T15:17:56.698Z,10.45
2019-02-27T15:20:27.119Z,11.28
2019-02-27T15:22:55.644Z,12.18
2019-02-27T15:25:24.158Z,11.25
2019-02-27T15:27:52.635Z,10.75
2019-02-27T15:30:23.142Z,11.68
2019-02-27T15:32:52.427Z,11.30
2019-02-27T15:35:22.137Z,11.43
2019-02-27T15:37:51.448Z,12.20
2019-02-27T15:40:22.155Z,10.58
2019-02-27T15:42:50.684Z,11.88
2019-02-27T15:45:24.231Z,11.65
2019-02-27T15:47:52.688Z,13.18
2019-02-27T15:50:32.853Z,12.75
2019-02-27T15:53:01.310Z,11.48
2019-02-27T15:55:32.774Z,10.53
2019-02-27T15:57:59.979Z,12.68
2019-02-27T16:00:29.851Z,13.03
2019-02-27T16:02:58.371Z,12.28
2019-02-27T16:05:30.002Z,12.98
2019-02-27T16:07:56.994Z,13.83
2019-02-27T16:10:29.102Z,12.80
2019-02-27T16:13:00.921Z,13.22
2019-02-27T16:15:27.750Z,13.60
2019-02-27T16:17:56.200Z,13.95
2019-02-27T16:20:26.677Z,13.65
2019-02-27T16:22:55.210Z,12.88
2019-02-27T16:25:28.590Z,12.98
2019-02-27T16:27:57.071Z,14.25
2019-02-27T16:30:32.320Z,13.00
2019-02-27T16:33:01.082Z,13.85
2019-02-27T16:35:29.597Z,13.35
2019-02-27T16:37:58.089Z,13.30
2019-02-27T16:40:30.432Z,12.55
2019-02-27T16:42:58.923Z,12.95
2019-02-27T16:45:33.544Z,13.55
2019-02-27T16:48:00.160Z,12.25
2019-02-27T16:50:28.717Z,13.05
2019-02-27T16:52:57.339Z,12.00
2019-02-27T16:55:29.224Z,12.28
2019-02-27T16:57:57.966Z,10.93
2019-02-27T17:00:31.801Z,12.15
2019-02-27T17:03:00.269Z,10.70
2019-02-27T17:05:31.765Z,10.80
2019-02-27T17:10:30.978Z,9.95
2019-02-27T17:12:59.792Z,11.40
2019-02-27T17:15:28.318Z,12.45
2019-02-27T17:17:56.871Z,13.00
2019-02-27T17:20:26.664Z,12.98
2019-02-27T17:22:55.255Z,11.75
2019-02-27T17:25:28.676Z,13.03
2019-02-27T17:28:13.283Z,11.93
2019-02-27T17:30:41.731Z,24.87
2019-02-27T17:33:10.222Z,14.65
2019-02-27T17:35:38.755Z,12.53
2019-02-27T17:38:07.243Z,12.10
2019-02-27T17:40:37.670Z,12.25
2019-02-27T17:43:06.829Z,11.03
2019-02-27T17:45:36.275Z,11.17
2019-02-27T17:48:04.846Z,11.18
2019-02-27T17:50:33.465Z,12.33
2019-02-27T17:53:01.994Z,11.68
2019-02-27T17:55:30.494Z,12.18
2019-02-27T17:57:59.282Z,12.13
2019-02-27T18:00:39.707Z,12.30
2019-02-27T18:03:08.269Z,11.90
2019-02-27T18:05:36.866Z,11.55
2019-02-27T18:08:05.316Z,12.10
2019-02-27T18:10:37.250Z,11.38
2019-02-27T18:13:04.121Z,11.60
2019-02-27T18:15:32.637Z,11.73
2019-02-27T18:18:01.129Z,11.57
2019-02-27T18:20:31.821Z,12.47
2019-02-27T18:22:59.839Z,11.22
2019-02-27T18:25:28.392Z,12.47
2019-02-27T18:27:59.618Z,13.75
2019-02-27T18:30:27.171Z,12.27
2019-02-27T18:32:55.648Z,11.18
2019-02-27T18:35:28.483Z,11.85
2019-02-27T18:37:54.576Z,12.33
2019-02-27T18:40:23.036Z,11.90
2019-02-27T18:42:55.239Z,11.08
2019-02-27T18:45:27.041Z,12.30
2019-02-27T18:47:55.572Z,11.48
2019-02-27T18:50:24.854Z,11.73
2019-02-27T18:52:54.146Z,10.58
2019-02-27T18:55:22.678Z,11.03
2019-02-27T18:57:51.226Z,14.53
2019-02-27T19:00:25.077Z,11.78
2019-02-27T19:03:11.090Z,12.30
2019-02-27T19:05:41.810Z,13.55
2019-02-27T19:08:09.767Z,11.22
2019-02-27T19:10:41.271Z,12.07
2019-02-27T19:13:08.561Z,12.75
2019-02-27T19:15:37.009Z,11.88
2019-02-27T19:18:06.537Z,11.95
2019-02-27T19:20:41.960Z,10.67
2019-02-27T19:23:10.421Z,12.15
2019-02-27T19:25:38.971Z,11.97
2019-02-27T19:28:07.610Z,11.78
2019-02-27T19:30:38.774Z,12.20
2019-02-27T19:33:06.729Z,12.35
2019-02-27T19:35:35.211Z,11.95
2019-02-27T19:38:04.103Z,11.03
2019-02-27T19:40:32.602Z,11.45
2019-02-27T19:43:02.994Z,12.88
2019-02-27T19:45:31.448Z,10.23
2019-02-27T19:47:59.898Z,12.07
2019-02-27T19:50:28.864Z,12.88
2019-02-27T19:53:02.938Z,12.07
2019-02-27T19:55:27.700Z,11.12
2019-02-27T19:57:56.230Z,10.78
2019-02-27T20:00:34.886Z,11.03
2019-02-27T20:03:02.273Z,10.13
2019-02-27T20:05:30.839Z,11.40
2019-02-27T20:07:59.310Z,11.05
2019-02-27T20:10:30.979Z,11.80
2019-02-27T20:12:58.299Z,11.80
2019-02-27T20:15:27.459Z,12.82
2019-02-27T20:17:56.047Z,11.57
2019-02-27T20:20:25.163Z,11.75
2019-02-27T20:22:54.798Z,11.10
2019-02-27T20:25:30.069Z,12.00
2019-02-27T20:27:58.862Z,11.00
2019-02-27T20:30:27.619Z,10.38
2019-02-27T20:32:56.135Z,11.12
2019-02-27T20:35:24.679Z,11.43
2019-02-27T20:37:53.118Z,11.93
2019-02-27T20:40:21.863Z,11.60
2019-02-27T20:42:53.778Z,11.83
2019-02-27T20:45:21.651Z,11.27
2019-02-27T20:47:51.432Z,11.40
2019-02-27T20:50:40.782Z,11.95
2019-02-27T20:53:11.545Z,10.50
2019-02-27T20:55:40.000Z,11.30
2019-02-27T20:58:08.466Z,11.95
2019-02-27T21:00:37.311Z,10.98
2019-02-27T21:03:05.924Z,11.70
2019-02-27T21:05:34.386Z,11.12
2019-02-27T21:08:02.843Z,11.30
2019-02-27T21:10:33.349Z,11.73
2019-02-27T21:13:01.857Z,11.45
2019-02-27T21:15:32.555Z,11.50
2019-02-27T21:18:00.583Z,11.75
2019-02-27T21:20:29.112Z,11.43
2019-02-27T21:22:59.903Z,10.98
2019-02-27T21:25:27.838Z,10.88
2019-02-27T21:27:56.348Z,11.70
2019-02-27T21:30:26.139Z,12.10
2019-02-27T21:32:54.629Z,10.88
2019-02-27T21:35:23.211Z,10.63
2019-02-27T21:37:51.721Z,11.45
2019-02-27T21:40:20.665Z,12.25
2019-02-27T21:42:50.835Z,12.05
2019-02-27T21:45:23.772Z,11.28
2019-02-27T21:47:53.022Z,11.55
2019-02-27T21:50:27.682Z,11.08
2019-02-27T21:52:56.134Z,11.48
2019-02-27T21:55:24.925Z,12.28
2019-02-27T21:57:53.461Z,10.95
2019-02-27T22:00:26.563Z,11.40
2019-02-27T22:02:56.616Z,10.85
2019-02-27T22:05:25.141Z,12.55
2019-02-27T22:07:53.667Z,11.15
2019-02-27T22:10:22.163Z,11.00
2019-02-27T22:12:50.615Z,11.68
2019-02-27T22:15:29.443Z,11.00
2019-02-27T22:17:57.959Z,11.08
2019-02-27T22:20:26.981Z,12.55
2019-02-27T22:22:55.770Z,11.18
2019-02-27T22:25:24.238Z,11.80
2019-02-27T22:27:53.223Z,11.75
2019-02-27T22:30:22.826Z,11.20
2019-02-27T22:32:51.274Z,11.65
2019-02-27T22:35:19.917Z,12.10
2019-02-27T22:37:50.989Z,11.85
2019-02-27T22:40:23.122Z,11.57
2019-02-27T22:42:51.757Z,11.33
2019-02-27T22:45:21.003Z,12.00
2019-02-27T22:47:53.744Z,12.23
2019-02-27T22:50:21.319Z,11.45
2019-02-27T22:52:54.176Z,11.10
2019-02-27T22:55:19.936Z,12.37
2019-02-27T22:57:48.517Z,13.13
2019-02-27T23:00:51.238Z,11.57
2019-02-27T23:03:28.269Z,11.28
2019-02-27T23:05:56.711Z,11.90
2019-02-27T23:08:25.231Z,11.95
2019-02-27T23:10:53.701Z,11.75
2019-02-27T23:13:22.495Z,11.75
2019-02-27T23:15:51.634Z,12.00
2019-02-27T23:18:20.111Z,12.53
2019-02-27T23:20:48.639Z,12.37
2019-02-27T23:23:17.131Z,12.28
2019-02-27T23:25:46.571Z,12.58
2019-02-27T23:28:15.663Z,12.40
2019-02-27T23:30:46.983Z,11.70
2019-02-27T23:33:14.300Z,12.58
2019-02-27T23:35:42.769Z,13.15
2019-02-27T23:38:11.206Z,13.10
2019-02-27T23:40:39.655Z,12.98
2019-02-27T23:43:08.189Z,13.25
2019-02-27T23:45:36.666Z,13.53
2019-02-27T23:48:05.175Z,12.95
2019-02-27T23:50:33.634Z,14.63
2019-02-27T23:53:02.071Z,14.95
2019-02-27T23:55:30.535Z,14.78
2019-02-27T23:57:58.994Z,16.77
